Flight Track Log - Related Links

Times and Time Zones

All times are in EDT time to prevent confusion due to time zone crossing. See the USC105 flight status page for this flight to view local times or setup timezone preferences in your user account.

Time Position Orientation Groundspeed Altitude Reporting Facility
EDT Latitude Longitude Course Direction KTS MPH feet Rate Location/Type
Tue 11:13:20 PM 41.5228 -81.7119 309° West 126 145 1,600  Level Cleveland Center
Tue 11:14:20 PM 41.5539 -81.7292 337° Northwest 126 145 2,800 1,200 Climbing Cleveland Center
Tue 11:15:15 PM 41.5725 -81.7628 307° West 132 152 3,900 1,043 Climbing Cleveland Center
Tue 11:16:15 PM 41.5886 -81.8103 294° West 146 168 4,800 992 Climbing Cleveland Center
Tue 11:17:16 PM 41.6111 -81.8578 302° West 141 162 5,900 1,086 Climbing Cleveland Center
Tue 11:18:00 PM 41.3946 -82.0275 236° Southwest  Level FlightAware Approximate
Tue 11:18:11 PM 41.6314 -81.8972 305° West 147 169 6,900  Level Cleveland Center
Tue 11:19:11 PM 41.6536 -81.9475 301° West 159 183 7,900 545 Climbing Cleveland Center
Tue 11:20:12 PM 41.6781 -82.0122 297° West 203 234 8,000 50 Climbing Cleveland Center
Tue 11:21:12 PM 41.7083 -82.0767 302° West 209 241 8,000  Level Cleveland Center
Tue 11:22:13 PM 41.7344 -82.1469 296° West 206 237 8,000  Level Cleveland Center
Tue 11:23:14 PM 41.7628 -82.2172 298° West 208 239 8,000  Level Cleveland Center
Tue 11:24:14 PM 41.7911 -82.2819 300° West 209 241 8,000  Level Cleveland Center
Tue 11:25:15 PM 41.8169 -82.3522 296° West 209 241 8,000  Level Cleveland Center
Tue 11:25:55 PM 41.8394 -82.3919 307° West 208 239 8,000  Level Cleveland Center
Tue 11:26:56 PM 41.8653 -82.4597 297° West 207 238 8,000  Level Cleveland Center
Tue 11:27:57 PM 41.8933 -82.5331 297° West 202 232 8,000  Level Cleveland Center
Tue 11:29:03 PM 41.9233 -82.6036 300° West 201 231 8,000  Level Cleveland Center
Tue 11:30:04 PM 41.9450 -82.6769 292° West 203 234 8,000  Level Cleveland Center
Tue 11:31:04 PM 41.9708 -82.7419 298° West 206 237 8,000  Level Cleveland Center
Tue 11:32:05 PM 41.9944 -82.8128 294° West 203 234 8,000  Level Cleveland Center
Tue 11:33:06 PM 42.0181 -82.8833 294° West 204 235 8,000  Level Cleveland Center
Tue 11:34:06 PM 42.0356 -82.9567 288° West 202 232 8,000  Level Cleveland Center
Tue 11:35:07 PM 42.0486 -83.0300 284° West 199 229 8,000  Level Cleveland Center
Tue 11:36:08 PM 42.0658 -83.0978 289° West 197 227 8,000 -451 Level Cleveland Center
Tue 11:37:20 PM 42.0844 -83.1936 285° West 213 245 7,000 -902 Descending Cleveland Center
Tue 11:38:21 PM 42.1017 -83.2669 288° West 217 250 6,000 -939 Descending Cleveland Center
Tue 11:39:15 PM 42.1167 -83.3350 287° West 216 249 5,200 -942 Descending Cleveland Center
Tue 11:40:22 PM 42.1353 -83.4281 285° West 214 246 4,100 -703 Descending Cleveland Center
Tue 11:41:23 PM 42.1500 -83.4989 286° West 195 224 3,700 -595 Descending Cleveland Center
Tue 11:42:23 PM 42.1567 -83.5719 277° West 205 236 2,900 -992 Descending Cleveland Center
Tue 11:43:24 PM 42.1933 -83.5989 331° Northwest 172 198 1,700 -885 Descending Cleveland Center
Tue 11:44:25 PM 42.2236 -83.5556 47° Northeast 136 157 1,100 -590 Descending Cleveland Center

Login

Don't have an account? Register now (free) for customized features, flight alerts, and more!